Los Angeles International Airport
KLAX : now visible

Airfield :











YOU CAN JOIN US ON...

 
LOGIN :

Register | Disclaimer

   EN    FR    IT 

 









Legend :    VFR   Marginal VFR   IFR   Intensive IFR   Very Intensive IFR
Visi :
Ceiling :
>= 8 km
>= 3000ft
5 to 8 km
1000 to 3000 ft
1500m to 5 km
500 to 1000 ft
800 to 1500m
200 to 500 ft
< 800m
< 200 ft
Symbols :   Thunderstorms  Fog  Heavy snow  Heavy precipitations  Wind > 20 kt






- Airport Elevation : 125 ft
- IATA code : LAX


KLAX - Los Angeles International

CURRENT METAR :
  • 171953Z 25008KT 10SM FEW025 21/13 A3002 RMK AO2 SLP164 T02110128 $

EXPIRED METARs :
  • 171853Z 25009KT 9SM FEW028 21/13 A3003 RMK AO2 SLP168 T02060128 $
  • 171753Z 26007KT 7SM SCT027 20/13 A3003 RMK AO2 SLP166 T02000128 10217 20172 51017 $

TAF KLAX
Valid from the 17 at 18:00 until the 19 at 00:00 UTC


171734Z 1718/1824 VRB03KT 6SM HZ BKN022
FM171900 26012KT P6SM FEW020
FM180300 27006KT P6SM OVC015
FM180800 VRB03KT P6SM OVC012
FM181700 VRB03KT P6SM BKN020
FM181900 26012KT P6SM FEW018
KZLA FIR / North America



MET'MAP, your aeronautical weather chart ! - Copyright ORBIFLY December 2007 - Disclaimer

ORBIFLY MET'MAP TEAM :

Programming & Development : Alexandra Zaïnal
Concept & original design : Baudouin d'Aumeries
Assistance for programming : Marc-Olivier Méhu
Technical & hardware support : Manuel Goepfert

Contact : metmap@orbifly.com




SOURCES & CREDITS :

   NOAA       Earth
Advisory